createdAt,value
2022-10-23T00:01:12.563Z,6.43
2022-10-23T00:03:45.786Z,6.40
2022-10-23T00:06:19.055Z,6.77
2022-10-23T00:08:51.727Z,6.73
2022-10-23T00:11:29.321Z,7.27
2022-10-23T00:14:04.371Z,6.67
2022-10-23T00:16:36.896Z,7.13
2022-10-23T00:19:14.625Z,7.50
2022-10-23T00:21:47.268Z,7.57
2022-10-23T00:24:20.108Z,7.73
2022-10-23T00:26:52.740Z,6.90
2022-10-23T00:29:28.103Z,7.23
2022-10-23T00:32:00.910Z,7.87
2022-10-23T00:34:33.585Z,7.33
2022-10-23T00:37:06.325Z,7.33
2022-10-23T00:39:38.998Z,6.73
2022-10-23T00:42:12.027Z,7.30
2022-10-23T00:45:03.491Z,6.47
2022-10-23T00:47:37.568Z,6.67
2022-10-23T00:50:10.253Z,6.90
2022-10-23T00:52:46.204Z,7.30
2022-10-23T00:55:19.831Z,6.93
2022-10-23T00:57:52.978Z,6.87
2022-10-23T01:00:29.406Z,6.70
2022-10-23T01:03:04.280Z,6.50
2022-10-23T01:05:41.301Z,6.40
2022-10-23T01:08:18.040Z,6.23
2022-10-23T01:10:53.622Z,6.90
2022-10-23T01:13:31.069Z,6.13
2022-10-23T01:16:06.536Z,6.77
2022-10-23T01:18:42.590Z,6.53
2022-10-23T01:21:18.221Z,6.30
2022-10-23T01:24:01.882Z,6.40
2022-10-23T01:26:41.665Z,5.87
2022-10-23T01:29:19.771Z,6.87
2022-10-23T01:31:54.892Z,6.13
2022-10-23T01:34:30.918Z,6.00
2022-10-23T01:37:04.964Z,6.30
2022-10-23T01:39:39.542Z,6.83
2022-10-23T01:42:17.463Z,6.40
2022-10-23T01:44:53.523Z,7.40
2022-10-23T01:47:28.006Z,7.37
2022-10-23T01:50:01.016Z,7.60
2022-10-23T01:52:33.613Z,6.23
2022-10-23T01:55:08.602Z,6.30
2022-10-23T01:57:42.557Z,6.30
2022-10-23T02:00:18.089Z,6.13
2022-10-23T02:02:51.675Z,6.97
2022-10-23T02:05:31.262Z,6.40
2022-10-23T02:08:04.031Z,6.27
2022-10-23T02:10:42.571Z,6.27
2022-10-23T02:13:19.232Z,5.83
2022-10-23T02:16:00.100Z,6.87
2022-10-23T02:18:35.817Z,6.50
2022-10-23T02:21:10.997Z,6.10
2022-10-23T02:23:46.716Z,6.27
2022-10-23T02:26:20.558Z,6.23
2022-10-23T02:28:54.824Z,6.20
2022-10-23T02:31:28.789Z,6.80
2022-10-23T02:34:01.563Z,6.97
2022-10-23T02:36:34.428Z,6.63
2022-10-23T02:39:07.284Z,6.33
2022-10-23T02:41:43.252Z,6.77
2022-10-23T02:44:22.501Z,5.87
2022-10-23T02:47:01.941Z,6.27
2022-10-23T02:49:38.951Z,6.50
2022-10-23T02:52:14.528Z,5.93
2022-10-23T02:54:54.752Z,6.13
2022-10-23T02:57:33.751Z,6.10
2022-10-23T03:00:07.620Z,6.37
2022-10-23T03:02:42.467Z,6.57
2022-10-23T03:05:21.835Z,6.33
2022-10-23T03:07:54.992Z,6.57
2022-10-23T03:10:27.626Z,6.80
2022-10-23T03:13:00.475Z,6.53
2022-10-23T03:15:33.189Z,6.77
2022-10-23T03:18:09.486Z,6.73
2022-10-23T03:20:42.077Z,7.33
2022-10-23T03:23:14.846Z,7.03
2022-10-23T03:25:47.495Z,7.20
2022-10-23T03:28:20.170Z,6.97
2022-10-23T03:30:53.287Z,6.90
2022-10-23T03:33:30.496Z,7.63
2022-10-23T03:36:03.105Z,7.07
2022-10-23T03:38:35.731Z,7.47
2022-10-23T03:41:08.417Z,6.67
2022-10-23T03:43:40.955Z,6.97
2022-10-23T03:46:13.609Z,7.30
2022-10-23T03:48:47.882Z,6.73
2022-10-23T03:51:20.555Z,7.50
2022-10-23T03:53:53.079Z,7.13
2022-10-23T03:56:25.779Z,7.73
2022-10-23T03:58:58.468Z,7.70
2022-10-23T04:01:32.391Z,7.47
2022-10-23T04:04:06.534Z,8.33
2022-10-23T04:06:39.228Z,6.87
2022-10-23T04:11:45.864Z,8.30
2022-10-23T04:14:21.507Z,8.57
2022-10-23T04:16:54.093Z,7.60
2022-10-23T04:19:28.341Z,7.23
2022-10-23T04:22:00.941Z,7.13
2022-10-23T04:24:34.095Z,7.53
2022-10-23T04:27:06.904Z,7.70
2022-10-23T04:29:39.612Z,8.40
2022-10-23T04:32:12.373Z,7.57
2022-10-23T04:34:46.445Z,7.93
2022-10-23T04:37:19.060Z,8.87
2022-10-23T04:39:51.744Z,8.30
2022-10-23T04:42:24.443Z,8.87
2022-10-23T04:44:57.111Z,8.40
2022-10-23T04:47:29.799Z,9.50
2022-10-23T04:50:04.066Z,8.80
2022-10-23T04:52:36.793Z,9.07
2022-10-23T04:55:10.183Z,8.83
2022-10-23T04:57:42.921Z,9.43
2022-10-23T05:00:16.630Z,9.20
2022-10-23T05:02:51.373Z,9.23
2022-10-23T05:05:25.385Z,9.47
2022-10-23T05:07:58.049Z,8.93
2022-10-23T05:10:30.881Z,10.23
2022-10-23T05:13:03.668Z,10.03
2022-10-23T05:15:36.122Z,9.77
2022-10-23T05:18:14.736Z,9.57
2022-10-23T05:20:49.766Z,9.80
2022-10-23T05:23:23.642Z,8.70
2022-10-23T05:25:56.379Z,9.27
2022-10-23T05:28:29.085Z,9.20
2022-10-23T05:31:03.568Z,8.73
2022-10-23T05:33:37.142Z,9.63
2022-10-23T05:36:12.589Z,8.87
2022-10-23T05:38:46.553Z,10.43
2022-10-23T05:41:19.336Z,9.33
2022-10-23T05:43:52.018Z,9.47
2022-10-23T05:46:24.733Z,9.40
2022-10-23T05:48:57.354Z,9.13
2022-10-23T05:51:31.528Z,9.23
2022-10-23T05:54:04.195Z,9.93
2022-10-23T05:56:37.333Z,9.77
2022-10-23T05:59:10.413Z,9.77
2022-10-23T06:01:43.315Z,9.87
2022-10-23T06:04:24.738Z,9.57
2022-10-23T06:07:00.968Z,9.47
2022-10-23T06:09:33.639Z,10.07
2022-10-23T06:12:06.805Z,10.03
2022-10-23T06:14:39.454Z,9.87
2022-10-23T06:17:12.149Z,10.00
2022-10-23T06:19:45.086Z,10.03
2022-10-23T06:24:52.774Z,10.00
2022-10-23T06:27:26.608Z,10.00
2022-10-23T06:29:59.335Z,10.13
2022-10-23T06:32:32.805Z,10.43
2022-10-23T06:35:05.836Z,10.43
2022-10-23T06:37:40.045Z,10.17
2022-10-23T06:40:13.261Z,9.73
2022-10-23T06:42:46.052Z,9.50
2022-10-23T06:45:21.555Z,10.40
2022-10-23T06:47:54.247Z,9.97
2022-10-23T06:50:26.860Z,10.33
2022-10-23T06:53:00.760Z,10.90
2022-10-23T06:55:33.947Z,11.10
2022-10-23T06:58:10.461Z,11.07
2022-10-23T07:00:44.551Z,11.13
2022-10-23T07:03:17.470Z,11.47
2022-10-23T07:05:50.235Z,10.30
2022-10-23T07:08:25.817Z,10.33
2022-10-23T07:11:03.587Z,10.90
2022-10-23T07:13:36.994Z,10.13
2022-10-23T07:16:10.501Z,11.50
2022-10-23T07:18:43.670Z,10.00
2022-10-23T07:21:16.765Z,9.57
2022-10-23T07:23:50.838Z,10.17
2022-10-23T07:26:23.602Z,9.10
2022-10-23T07:28:56.442Z,10.20
2022-10-23T07:31:29.131Z,9.80
2022-10-23T07:34:01.762Z,10.37
2022-10-23T07:36:34.381Z,9.93
2022-10-23T07:39:08.497Z,9.83
2022-10-23T07:41:41.138Z,10.23
2022-10-23T07:44:13.845Z,10.57
2022-10-23T07:46:46.532Z,9.97
2022-10-23T07:49:19.248Z,9.50
2022-10-23T07:51:53.910Z,10.23
2022-10-23T07:54:28.071Z,10.03
2022-10-23T07:57:01.055Z,10.20
2022-10-23T07:59:37.179Z,9.57
2022-10-23T08:02:12.215Z,9.47
2022-10-23T08:04:45.067Z,10.33
2022-10-23T08:07:20.693Z,9.63
2022-10-23T08:09:54.800Z,9.30
2022-10-23T08:12:27.492Z,10.50
2022-10-23T08:15:00.742Z,9.43
2022-10-23T08:17:33.603Z,9.83
2022-10-23T08:20:06.891Z,9.80
2022-10-23T08:22:39.582Z,9.73
2022-10-23T08:25:13.852Z,9.70
2022-10-23T08:27:47.006Z,9.50
2022-10-23T08:30:20.705Z,9.57
2022-10-23T08:32:53.409Z,9.13
2022-10-23T08:35:27.724Z,9.83
2022-10-23T08:38:00.494Z,9.77
2022-10-23T08:40:35.844Z,9.23
2022-10-23T08:43:14.231Z,9.73
2022-10-23T08:45:48.668Z,9.00
2022-10-23T08:48:25.467Z,9.40
2022-10-23T08:51:00.485Z,9.50
2022-10-23T08:53:36.874Z,8.63
2022-10-23T08:56:19.355Z,7.67
2022-10-23T08:58:57.971Z,8.60
2022-10-23T09:01:34.522Z,6.97
2022-10-23T09:04:07.719Z,7.63
2022-10-23T09:06:42.159Z,6.73
2022-10-23T09:09:42.994Z,6.73
2022-10-23T09:12:18.945Z,6.57
2022-10-23T09:14:57.194Z,6.53
2022-10-23T09:17:30.658Z,6.50
2022-10-23T09:20:11.912Z,5.90
2022-10-23T09:22:44.908Z,5.57
2022-10-23T09:25:19.172Z,5.30
2022-10-23T09:28:05.211Z,5.23
2022-10-23T09:30:39.592Z,5.63
2022-10-23T09:33:16.145Z,5.67
2022-10-23T09:35:53.328Z,6.13
2022-10-23T09:38:28.323Z,5.90
2022-10-23T09:41:02.644Z,6.23
2022-10-23T09:43:36.697Z,7.30
2022-10-23T09:46:10.420Z,7.00
2022-10-23T09:48:43.187Z,6.63
2022-10-23T09:51:18.585Z,5.77
2022-10-23T09:53:52.521Z,6.30
2022-10-23T09:56:26.726Z,6.03
2022-10-23T09:59:02.087Z,5.30
2022-10-23T10:01:36.230Z,5.43
2022-10-23T10:04:09.045Z,5.53
2022-10-23T10:09:19.243Z,5.53
2022-10-23T10:11:53.948Z,5.40
2022-10-23T10:14:43.387Z,5.33
2022-10-23T10:17:20.917Z,4.97
2022-10-23T10:20:06.971Z,4.87
2022-10-23T10:22:47.303Z,4.70
2022-10-23T10:25:22.864Z,6.37
2022-10-23T10:28:01.164Z,5.33
2022-10-23T10:30:38.148Z,4.23
2022-10-23T10:33:15.698Z,5.13
2022-10-23T10:35:53.449Z,4.03
2022-10-23T10:38:47.417Z,4.40
2022-10-23T10:41:22.743Z,4.00
2022-10-23T10:44:01.780Z,4.30
2022-10-23T10:46:38.723Z,3.83
2022-10-23T10:49:13.906Z,3.47
2022-10-23T10:51:49.014Z,3.60
2022-10-23T10:54:29.297Z,4.60
2022-10-23T10:57:03.911Z,3.37
2022-10-23T10:59:38.757Z,3.47
2022-10-23T11:02:21.488Z,2.97
2022-10-23T11:04:57.624Z,4.00
2022-10-23T11:07:33.466Z,3.57
2022-10-23T11:10:15.356Z,3.33
2022-10-23T11:12:48.315Z,3.50
2022-10-23T11:15:22.995Z,3.93
2022-10-23T11:17:59.455Z,3.70
2022-10-23T11:20:45.948Z,3.40
2022-10-23T11:23:34.695Z,4.03
2022-10-23T11:26:18.801Z,4.70
2022-10-23T11:28:58.058Z,4.50
2022-10-23T11:31:36.393Z,3.97
2022-10-23T11:34:28.552Z,4.90
2022-10-23T11:37:02.368Z,5.50
2022-10-23T11:39:37.833Z,4.30
2022-10-23T11:42:14.570Z,4.07
2022-10-23T11:44:48.165Z,5.20
2022-10-23T11:47:36.439Z,5.20
2022-10-23T11:50:26.910Z,4.70
2022-10-23T11:53:15.971Z,4.00
2022-10-23T11:56:03.971Z,4.20
2022-10-23T11:58:42.597Z,4.20
2022-10-23T12:01:35.647Z,4.60
2022-10-23T12:04:17.779Z,3.40
2022-10-23T12:06:53.684Z,3.53
2022-10-23T12:09:35.955Z,4.23
2022-10-23T12:12:27.237Z,3.90
2022-10-23T12:15:26.561Z,3.20
2022-10-23T12:18:09.442Z,4.00
2022-10-23T12:20:45.998Z,3.43
2022-10-23T12:23:42.153Z,3.80
2022-10-23T12:26:24.264Z,3.83
2022-10-23T12:29:00.469Z,3.40
2022-10-23T12:31:38.320Z,3.40
2022-10-23T12:34:16.710Z,3.33
2022-10-23T12:36:52.947Z,2.80
2022-10-23T12:39:27.791Z,3.00
2022-10-23T12:42:00.842Z,2.90
2022-10-23T12:44:33.535Z,2.93
2022-10-23T12:47:06.211Z,3.63
2022-10-23T12:49:40.839Z,3.27
2022-10-23T12:52:16.490Z,4.03
2022-10-23T12:54:50.832Z,3.03
2022-10-23T12:57:25.724Z,3.37
2022-10-23T13:00:04.455Z,3.23
2022-10-23T13:02:37.472Z,3.43
2022-10-23T13:05:13.212Z,2.90
2022-10-23T13:07:47.300Z,3.17
2022-10-23T13:10:22.919Z,4.13
2022-10-23T13:12:59.436Z,3.90
2022-10-23T13:15:39.135Z,4.80
2022-10-23T13:18:14.198Z,3.53
2022-10-23T13:20:57.355Z,4.40
2022-10-23T13:23:33.842Z,4.00
2022-10-23T13:26:21.576Z,3.93
2022-10-23T13:28:54.265Z,3.13
2022-10-23T13:31:31.551Z,3.10
2022-10-23T13:34:06.225Z,4.30
2022-10-23T13:36:39.579Z,3.40
2022-10-23T13:39:16.343Z,3.27
2022-10-23T13:41:50.674Z,3.77
2022-10-23T13:44:24.338Z,3.80
2022-10-23T13:46:57.119Z,3.53
2022-10-23T13:49:29.744Z,4.30
2022-10-23T13:52:02.374Z,3.93
2022-10-23T13:54:34.940Z,4.03
2022-10-23T13:57:12.476Z,5.10
2022-10-23T13:59:45.095Z,3.93
2022-10-23T14:02:24.998Z,3.93
2022-10-23T14:04:57.786Z,3.03
2022-10-23T14:07:30.406Z,3.57
2022-10-23T14:10:03.249Z,3.80
2022-10-23T14:12:43.280Z,3.53
2022-10-23T14:15:16.507Z,2.83
2022-10-23T14:17:49.235Z,2.63
2022-10-23T14:20:25.695Z,2.83
2022-10-23T14:23:00.407Z,3.33
2022-10-23T14:25:33.053Z,3.20
2022-10-23T14:28:07.087Z,3.00
2022-10-23T14:30:39.633Z,3.07
2022-10-23T14:33:12.374Z,3.70
2022-10-23T14:35:44.954Z,2.97
2022-10-23T14:38:17.598Z,3.00
2022-10-23T14:40:50.250Z,3.20
2022-10-23T14:43:24.722Z,3.77
2022-10-23T14:45:57.334Z,3.20
2022-10-23T14:48:29.944Z,3.47
2022-10-23T14:51:02.696Z,3.63
2022-10-23T14:53:35.476Z,3.33
2022-10-23T14:56:12.503Z,2.83
2022-10-23T14:58:46.596Z,3.17
2022-10-23T15:01:20.913Z,3.10
2022-10-23T15:03:55.861Z,3.50
2022-10-23T15:06:28.804Z,3.43
2022-10-23T15:09:02.064Z,3.47
2022-10-23T15:11:34.714Z,3.30
2022-10-23T15:14:09.139Z,2.83
2022-10-23T15:16:42.328Z,3.40
2022-10-23T15:19:18.416Z,3.23
2022-10-23T15:21:52.427Z,3.20
2022-10-23T15:24:26.593Z,3.07
2022-10-23T15:27:00.244Z,3.37
2022-10-23T15:29:34.287Z,3.70
2022-10-23T15:32:07.761Z,3.30
2022-10-23T15:34:45.136Z,3.70
2022-10-23T15:37:20.437Z,3.00
2022-10-23T15:39:53.600Z,3.70
2022-10-23T15:42:30.484Z,3.90
2022-10-23T15:45:07.705Z,3.50
2022-10-23T15:47:42.909Z,4.50
2022-10-23T15:50:15.902Z,3.53
2022-10-23T15:52:48.886Z,3.97
2022-10-23T15:55:23.919Z,3.80
2022-10-23T15:58:01.817Z,3.80
2022-10-23T16:00:38.195Z,4.03
2022-10-23T16:03:10.852Z,3.77
2022-10-23T16:05:43.535Z,4.40
2022-10-23T16:08:17.283Z,4.70
2022-10-23T16:10:49.990Z,4.10
2022-10-23T16:13:22.576Z,4.63
2022-10-23T16:15:56.689Z,4.90
2022-10-23T16:18:29.365Z,5.53
2022-10-23T16:21:02.092Z,5.07
2022-10-23T16:23:35.245Z,4.73
2022-10-23T16:26:07.882Z,4.70
2022-10-23T16:28:40.674Z,4.77
2022-10-23T16:31:19.989Z,4.90
2022-10-23T16:33:53.607Z,4.23
2022-10-23T16:36:26.245Z,5.53
2022-10-23T16:38:59.037Z,5.50
2022-10-23T16:41:31.756Z,6.00
2022-10-23T16:44:04.700Z,4.87
2022-10-23T16:46:39.472Z,4.97
2022-10-23T16:49:13.843Z,5.77
2022-10-23T16:51:48.944Z,5.10
2022-10-23T16:54:21.595Z,5.80
2022-10-23T16:57:01.564Z,6.23
2022-10-23T16:59:36.992Z,6.23
2022-10-23T17:02:12.019Z,6.27
2022-10-23T17:04:44.601Z,5.80
2022-10-23T17:07:19.593Z,5.77
2022-10-23T17:09:52.279Z,5.70
2022-10-23T17:12:24.884Z,5.83
2022-10-23T17:15:00.268Z,6.13
2022-10-23T17:17:34.067Z,5.43
2022-10-23T17:20:07.411Z,5.83
2022-10-23T17:22:40.062Z,7.47
2022-10-23T17:25:15.017Z,8.30
2022-10-23T17:27:47.902Z,8.13
2022-10-23T17:30:24.652Z,8.13
2022-10-23T17:33:01.052Z,8.03
2022-10-23T17:35:34.650Z,7.30
2022-10-23T17:38:07.368Z,6.70
2022-10-23T17:40:42.817Z,6.23
2022-10-23T17:43:16.097Z,6.53
2022-10-23T17:45:48.635Z,6.73
2022-10-23T17:48:22.627Z,6.43
2022-10-23T17:51:01.787Z,6.60
2022-10-23T17:53:39.147Z,6.90
2022-10-23T17:56:18.688Z,6.33
2022-10-23T17:58:51.998Z,7.30
2022-10-23T18:01:25.775Z,6.17
2022-10-23T18:04:00.600Z,6.87
2022-10-23T18:06:34.946Z,6.20
2022-10-23T18:09:07.854Z,6.93
2022-10-23T18:11:45.211Z,6.70
2022-10-23T18:14:21.304Z,6.90
2022-10-23T18:16:54.866Z,7.37
2022-10-23T18:19:29.645Z,7.03
2022-10-23T18:22:02.336Z,6.20
2022-10-23T18:24:35.979Z,6.00
2022-10-23T18:27:08.574Z,5.70
2022-10-23T18:29:43.818Z,5.93
2022-10-23T18:32:16.423Z,5.87
2022-10-23T18:34:57.742Z,5.47
2022-10-23T18:37:33.264Z,5.63
2022-10-23T18:40:07.848Z,5.60
2022-10-23T18:42:40.747Z,5.93
2022-10-23T18:45:13.813Z,5.50
2022-10-23T18:47:46.681Z,5.70
2022-10-23T18:50:20.931Z,5.53
2022-10-23T18:52:53.778Z,6.00
2022-10-23T18:55:27.313Z,5.33
2022-10-23T18:58:00.060Z,5.63
2022-10-23T19:00:32.884Z,5.57
2022-10-23T19:03:12.221Z,5.67
2022-10-23T19:05:47.442Z,5.30
2022-10-23T19:08:20.064Z,5.60
2022-10-23T19:10:53.778Z,5.70
2022-10-23T19:13:26.474Z,5.87
2022-10-23T19:15:59.436Z,7.60
2022-10-23T19:18:32.669Z,6.63
2022-10-23T19:21:07.738Z,8.13
2022-10-23T19:23:41.546Z,8.50
2022-10-23T19:26:14.559Z,10.70
2022-10-23T19:28:48.629Z,9.03
2022-10-23T19:31:23.390Z,9.30
2022-10-23T19:33:56.016Z,7.17
2022-10-23T19:36:30.039Z,7.70
2022-10-23T19:39:05.072Z,5.90
2022-10-23T19:41:40.400Z,6.90
2022-10-23T19:44:16.358Z,5.97
2022-10-23T19:46:49.777Z,5.70
2022-10-23T19:49:23.923Z,5.20
2022-10-23T19:52:00.449Z,5.23
2022-10-23T19:54:33.464Z,6.10
2022-10-23T19:57:06.205Z,4.97
2022-10-23T19:59:38.798Z,5.47
2022-10-23T20:02:11.587Z,5.50
2022-10-23T20:04:44.454Z,5.80
2022-10-23T20:07:18.376Z,5.73
2022-10-23T20:09:51.098Z,5.07
2022-10-23T20:12:26.694Z,6.10
2022-10-23T20:14:59.476Z,6.13
2022-10-23T20:17:32.255Z,5.67
2022-10-23T20:20:05.155Z,5.57
2022-10-23T20:22:41.747Z,5.53
2022-10-23T20:25:16.867Z,5.73
2022-10-23T20:27:49.539Z,4.93
2022-10-23T20:30:24.526Z,5.10
2022-10-23T20:32:57.160Z,5.93
2022-10-23T20:35:29.948Z,5.50
2022-10-23T20:38:03.965Z,5.90
2022-10-23T20:40:36.976Z,6.00
2022-10-23T20:43:10.428Z,6.03
2022-10-23T20:45:42.923Z,5.80
2022-10-23T20:48:15.562Z,6.53
2022-10-23T20:50:48.152Z,5.87
2022-10-23T20:53:22.363Z,5.80
2022-10-23T20:55:55.036Z,5.80
2022-10-23T20:58:27.728Z,6.03
2022-10-23T21:01:03.438Z,5.80
2022-10-23T21:03:38.663Z,6.40
2022-10-23T21:06:12.306Z,5.90
2022-10-23T21:08:46.730Z,5.90
2022-10-23T21:11:19.377Z,7.13
2022-10-23T21:13:52.612Z,6.30
2022-10-23T21:16:28.534Z,6.73
2022-10-23T21:19:02.730Z,6.13
2022-10-23T21:21:35.780Z,6.60
2022-10-23T21:24:11.398Z,6.23
2022-10-23T21:26:44.769Z,6.37
2022-10-23T21:29:19.024Z,6.07
2022-10-23T21:31:52.732Z,7.00
2022-10-23T21:34:25.950Z,6.33
2022-10-23T21:37:17.686Z,7.43
2022-10-23T21:39:54.176Z,6.67
2022-10-23T21:42:26.842Z,6.73
2022-10-23T21:45:02.376Z,7.07
2022-10-23T21:47:37.788Z,6.63
2022-10-23T21:50:13.589Z,8.23
2022-10-23T21:52:51.216Z,6.87
2022-10-23T21:55:27.967Z,7.33
2022-10-23T21:58:00.700Z,6.37
2022-10-23T22:00:33.328Z,6.93
2022-10-23T22:03:05.890Z,7.20
2022-10-23T22:05:41.588Z,7.57
2022-10-23T22:08:14.543Z,7.50
2022-10-23T22:10:48.470Z,7.53
2022-10-23T22:13:23.821Z,7.67
2022-10-23T22:15:59.058Z,7.40
2022-10-23T22:18:31.699Z,8.37
2022-10-23T22:21:05.200Z,7.23
2022-10-23T22:23:38.333Z,7.07
2022-10-23T22:26:19.523Z,7.13
2022-10-23T22:28:52.637Z,6.83
2022-10-23T22:31:29.118Z,6.57
2022-10-23T22:34:13.137Z,7.33
2022-10-23T22:36:55.632Z,6.73
2022-10-23T22:39:28.473Z,6.90
2022-10-23T22:42:03.994Z,7.10
2022-10-23T22:44:36.764Z,7.30
2022-10-23T22:47:12.707Z,7.23
2022-10-23T22:49:45.391Z,6.83
2022-10-23T22:52:18.136Z,7.90
2022-10-23T22:54:50.762Z,7.17
2022-10-23T23:00:02.542Z,7.30
2022-10-23T23:02:35.302Z,7.80
2022-10-23T23:05:10.612Z,6.93
2022-10-23T23:07:43.534Z,7.03
2022-10-23T23:10:16.444Z,6.97
2022-10-23T23:12:52.496Z,5.87
2022-10-23T23:15:25.178Z,7.33
2022-10-23T23:17:59.788Z,6.33
2022-10-23T23:20:32.532Z,7.17
2022-10-23T23:23:05.184Z,6.87
2022-10-23T23:25:41.007Z,6.90
2022-10-23T23:28:18.510Z,7.50
2022-10-23T23:30:51.197Z,7.40
2022-10-23T23:33:23.861Z,7.30
2022-10-23T23:35:56.477Z,7.07
2022-10-23T23:38:29.267Z,6.63
2022-10-23T23:41:07.506Z,6.90
2022-10-23T23:43:41.615Z,7.03
2022-10-23T23:46:17.332Z,8.10
2022-10-23T23:48:50.321Z,7.30
2022-10-23T23:51:24.761Z,7.57
2022-10-23T23:53:57.401Z,7.40
2022-10-23T23:56:29.866Z,7.93
2022-10-23T23:59:03.821Z,7.53
